Big Glory — H9IF — position and weather

sailwx.info

Track history (hours):
 
Tides and Currents Weather Stations Pressure Air Temp Water Temp Dewpoint Dewpoint Depression Visibility Wind Speed Wind Dir Waves Ship Positions

Big Glory

Last reported at 2017-May-20 17:48 UTC. Time now 2017-May-27 13:47 UTC.
Position N 30°03' E 122°57'.

Length 190 m; draft 6.6 m.

Type: Ship. MMSI: 354285000.

Date/timePositionNaut miles runAvg speedWind from/ knotsBaromVisibWave heightAir tempDewpointWater temp
2017-May-20 17:48N 30°03' E 122°57'3711.3
2017-May-20 14:32N 30°40' E 122°59'711.5
2017-May-20 13:55N 30°47' E 122°57'611.1
2017-May-20 13:24N 30°52' E 122°55'2711.3
2017-May-20 11:02N 31°01' E 122°25'010.3
2017-May-20 10:59N 31°01' E 122°25'710.7
2017-May-20 10:18N 31°02' E 122°16'310.1
2017-May-20 09:59N 31°03' E 122°13'3 7.1
2017-May-20 09:30N 31°03' E 122°09'4 7.5
2017-May-20 09:00N 31°04' E 122°04'4 8.2
2017-May-20 08:30N 31°05' E 121°60'4 8.9
2017-May-20 08:00N 31°08' E 121°55'611.2
2017-May-20 07:30N 31°11' E 121°50'612.3
2017-May-20 07:00N 31°16' E 121°46'612.2
2017-May-20 06:30N 31°20' E 121°41'611.7
2017-May-20 06:00N 31°23' E 121°35'511.0
2017-May-20 05:30N 31°26' E 121°29'5 9.6
2017-May-20 05:00N 31°30' E 121°26'612.1
2017-May-20 04:30N 31°33' E 121°20'713.9
2017-May-20 04:00N 31°38' E 121°14'714.1
2017-May-20 03:30N 31°43' E 121°08'713.2
2017-May-20 03:00N 31°46' E 121°01'611.9
2017-May-20 02:30N 31°49' E 120°55'  
2017-May-17 17:51N 31°58' E 120°51'0 0.0
2017-May-17 17:27N 31°58' E 120°51'4 0.2
2017-May-17 00:38N 31°55' E 120°53'0 0.1
2017-May-17 00:26N 31°55' E 120°53'0 0.0
2017-May-16 23:56N 31°55' E 120°53'0 0.3
2017-May-16 23:26N 31°55' E 120°53'0 0.1
2017-May-16 22:59N 31°55' E 120°53'0 0.0
2017-May-16 22:26N 31°55' E 120°53'0 0.1
2017-May-16 21:59N 31°55' E 120°53'0 0.1
2017-May-16 21:26N 31°55' E 120°53'0 0.0
2017-May-16 20:59N 31°55' E 120°53'0 0.1
2017-May-16 20:29N 31°55' E 120°53'0 0.1
2017-May-16 18:44N 31°55' E 120°53'0 0.1
2017-May-16 18:20N 31°55' E 120°53'0 0.0
2017-May-16 17:50N 31°55' E 120°53'0 0.0
2017-May-16 09:41N 31°55' E 120°53'1 2.4
2017-May-16 09:23N 31°54' E 120°53'3 6.5
2017-May-16 08:59N 31°52' E 120°54'1010.9
2017-May-16 08:01N 31°46' E 121°04'013.7
2017-May-16 08:00N 31°46' E 121°04'612.3
2017-May-16 07:30N 31°42' E 121°10'612.2
2017-May-16 07:00N 31°38' E 121°15'612.2
2017-May-16 06:30N 31°33' E 121°20'612.1
2017-May-16 06:00N 31°30' E 121°26'611.2
2017-May-16 05:30N 31°26' E 121°30'510.6
2017-May-16 05:00N 31°23' E 121°36'611.0
2017-May-16 04:30N 31°20' E 121°41'510.3
2017-May-16 04:00N 31°18' E 121°47'510.0
2017-May-16 03:30N 31°16' E 121°52'510.6
2017-May-16 03:00N 31°15' E 121°58'510.2
2017-May-16 02:30N 31°14' E 122°04'5 9.5
2017-May-16 02:00N 31°12' E 122°09'5 9.4
2017-May-16 01:30N 31°09' E 122°13'5 9.0
2017-May-16 01:00N 31°07' E 122°18'510.9
2017-May-16 00:30N 31°06' E 122°24'4 8.4
2017-May-16 00:00N 31°07' E 122°29'4 7.7
2017-May-15 23:30N 31°07' E 122°33'4 7.8
2017-May-15 23:00N 31°07' E 122°38'1 1.3
2017-May-15 22:30N 31°07' E 122°39'3 6.6
2017-May-15 22:00N 31°06' E 122°42'5 9.7
2017-May-15 21:30N 31°03' E 122°47'1 1.0
2017-May-15 20:52N 31°02' E 122°47'0 0.1
2017-May-15 20:28N 31°02' E 122°47'0 0.1
2017-May-15 19:58N 31°03' E 122°47'0 0.0
2017-May-15 19:28N 31°03' E 122°47'0 0.1
2017-May-15 18:55N 31°03' E 122°47'0 0.0
2017-May-15 18:22N 31°03' E 122°47'0 0.1
2017-May-15 17:58N 31°03' E 122°47'0 0.1
2017-May-15 17:28N 31°03' E 122°47'0 0.0
2017-May-15 16:58N 31°03' E 122°47'0 0.1
2017-May-15 16:25N 31°03' E 122°47'0 0.0
2017-May-15 15:49N 31°02' E 122°47'0 0.0
2017-May-15 15:25N 31°02' E 122°47'0 0.1
2017-May-15 14:46N 31°02' E 122°47'0 0.1
2017-May-15 13:52N 31°02' E 122°47'0 0.0
2017-May-15 13:28N 31°02' E 122°47'0 0.0
2017-May-15 12:55N 31°02' E 122°47'0 0.1
2017-May-15 12:28N 31°02' E 122°47'0 0.1
2017-May-15 11:52N 31°02' E 122°47'0 0.1
2017-May-15 11:28N 31°02' E 122°47'0 0.0
2017-May-15 10:58N 31°02' E 122°47'0 0.1
2017-May-15 10:28N 31°02' E 122°47'0 0.1
2017-May-15 09:55N 31°02' E 122°47'0 0.1
2017-May-15 09:22N 31°02' E 122°47'0 0.1
2017-May-15 08:55N 31°02' E 122°47'0 0.0
2017-May-15 08:28N 31°02' E 122°47'0 0.0
2017-May-15 07:58N 31°02' E 122°47'0 0.1
2017-May-15 07:07N 31°03' E 122°47'0 0.1
2017-May-15 06:40N 31°03' E 122°47'0 0.0
2017-May-15 06:22N 31°03' E 122°47'0 0.1
2017-May-15 05:49N 31°03' E 122°47'1 0.0
2017-May-14 11:19N 31°02' E 122°47'0 0.0
2017-May-14 10:58N 31°02' E 122°47'0 0.0
2017-May-13 21:31N 31°02' E 122°47'0 0.0
2017-May-13 21:22N 31°02' E 122°47'0 0.0
2017-May-13 20:43N 31°02' E 122°47'0 0.0
2017-May-13 20:28N 31°02' E 122°47'0 0.0
2017-May-13 19:58N 31°02' E 122°47'0 0.0
2017-May-13 19:16N 31°02' E 122°47'0 0.0
2017-May-13 18:58N 31°02' E 122°47'0 0.1
2017-May-13 18:16N 31°02' E 122°47'0 0.2
2017-May-13 17:55N 31°02' E 122°47'0 0.0
2017-May-13 17:28N 31°02' E 122°47'0 0.1
2017-May-13 16:55N 31°02' E 122°47'0 0.1
2017-May-13 16:28N 31°02' E 122°47'0 0.0
2017-May-13 15:58N 31°02' E 122°47'0 0.1
2017-May-13 15:28N 31°02' E 122°47'0 0.0
2017-May-13 14:55N 31°02' E 122°47'0 0.1
2017-May-13 14:22N 31°02' E 122°47'3 3.1
2017-May-13 13:30N 31°01' E 122°50'611.5
2017-May-13 13:00N 30°56' E 122°53'612.5
2017-May-13 12:30N 30°50' E 122°56'612.2
2017-May-13 12:00N 30°44' E 122°58'612.1
2017-May-13 11:30N 30°38' E 122°60'612.1
2017-May-13 11:00N 30°32' E 123°00'612.1
2017-May-13 10:30N 30°26' E 123°01'612.0
2017-May-13 10:00N 30°20' E 123°01'611.4
2017-May-13 09:30N 30°15' E 123°00'611.4
2017-May-13 09:00N 30°09' E 122°60'1411.5
2017-May-13 07:49N 29°56' E 122°56'  
Track history (hours):
 
Tides and Currents Weather Stations Pressure Air Temp Water Temp Dewpoint Dewpoint Depression Visibility Wind Speed Wind Dir Waves Ship Positions

Big Glory

Last reported at 2017-May-20 17:48 UTC. Time now 2017-May-27 13:47 UTC.
Position N 30°03' E 122°57'.

Length 190 m; draft 6.6 m.

Type: Ship. MMSI: 354285000.

Date/timePositionNaut miles runAvg speedWind from/ knotsBaromVisibWave heightAir tempDewpointWater temp
2017-May-20 17:48N 30°03' E 122°57'3711.3
2017-May-20 14:32N 30°40' E 122°59'711.5
2017-May-20 13:55N 30°47' E 122°57'611.1
2017-May-20 13:24N 30°52' E 122°55'2711.3
2017-May-20 11:02N 31°01' E 122°25'010.3
2017-May-20 10:59N 31°01' E 122°25'710.7
2017-May-20 10:18N 31°02' E 122°16'310.1
2017-May-20 09:59N 31°03' E 122°13'3 7.1
2017-May-20 09:30N 31°03' E 122°09'4 7.5
2017-May-20 09:00N 31°04' E 122°04'4 8.2
2017-May-20 08:30N 31°05' E 121°60'4 8.9
2017-May-20 08:00N 31°08' E 121°55'611.2
2017-May-20 07:30N 31°11' E 121°50'612.3
2017-May-20 07:00N 31°16' E 121°46'612.2
2017-May-20 06:30N 31°20' E 121°41'611.7
2017-May-20 06:00N 31°23' E 121°35'511.0
2017-May-20 05:30N 31°26' E 121°29'5 9.6
2017-May-20 05:00N 31°30' E 121°26'612.1
2017-May-20 04:30N 31°33' E 121°20'713.9
2017-May-20 04:00N 31°38' E 121°14'714.1
2017-May-20 03:30N 31°43' E 121°08'713.2
2017-May-20 03:00N 31°46' E 121°01'611.9
2017-May-20 02:30N 31°49' E 120°55'  
2017-May-17 17:51N 31°58' E 120°51'0 0.0
2017-May-17 17:27N 31°58' E 120°51'4 0.2
2017-May-17 00:38N 31°55' E 120°53'0 0.1
2017-May-17 00:26N 31°55' E 120°53'0 0.0
2017-May-16 23:56N 31°55' E 120°53'0 0.3
2017-May-16 23:26N 31°55' E 120°53'0 0.1
2017-May-16 22:59N 31°55' E 120°53'0 0.0
2017-May-16 22:26N 31°55' E 120°53'0 0.1
2017-May-16 21:59N 31°55' E 120°53'0 0.1
2017-May-16 21:26N 31°55' E 120°53'0 0.0
2017-May-16 20:59N 31°55' E 120°53'0 0.1
2017-May-16 20:29N 31°55' E 120°53'0 0.1
2017-May-16 18:44N 31°55' E 120°53'0 0.1
2017-May-16 18:20N 31°55' E 120°53'0 0.0
2017-May-16 17:50N 31°55' E 120°53'0 0.0
2017-May-16 09:41N 31°55' E 120°53'1 2.4
2017-May-16 09:23N 31°54' E 120°53'3 6.5
2017-May-16 08:59N 31°52' E 120°54'1010.9
2017-May-16 08:01N 31°46' E 121°04'013.7
2017-May-16 08:00N 31°46' E 121°04'612.3
2017-May-16 07:30N 31°42' E 121°10'612.2
2017-May-16 07:00N 31°38' E 121°15'612.2
2017-May-16 06:30N 31°33' E 121°20'612.1
2017-May-16 06:00N 31°30' E 121°26'611.2
2017-May-16 05:30N 31°26' E 121°30'510.6
2017-May-16 05:00N 31°23' E 121°36'611.0
2017-May-16 04:30N 31°20' E 121°41'510.3
2017-May-16 04:00N 31°18' E 121°47'510.0
2017-May-16 03:30N 31°16' E 121°52'510.6
2017-May-16 03:00N 31°15' E 121°58'510.2
2017-May-16 02:30N 31°14' E 122°04'5 9.5
2017-May-16 02:00N 31°12' E 122°09'5 9.4
2017-May-16 01:30N 31°09' E 122°13'5 9.0
2017-May-16 01:00N 31°07' E 122°18'510.9
2017-May-16 00:30N 31°06' E 122°24'4 8.4
2017-May-16 00:00N 31°07' E 122°29'4 7.7
2017-May-15 23:30N 31°07' E 122°33'4 7.8
2017-May-15 23:00N 31°07' E 122°38'1 1.3
2017-May-15 22:30N 31°07' E 122°39'3 6.6
2017-May-15 22:00N 31°06' E 122°42'5 9.7
2017-May-15 21:30N 31°03' E 122°47'1 1.0
2017-May-15 20:52N 31°02' E 122°47'0 0.1
2017-May-15 20:28N 31°02' E 122°47'0 0.1
2017-May-15 19:58N 31°03' E 122°47'0 0.0
2017-May-15 19:28N 31°03' E 122°47'0 0.1
2017-May-15 18:55N 31°03' E 122°47'0 0.0
2017-May-15 18:22N 31°03' E 122°47'0 0.1
2017-May-15 17:58N 31°03' E 122°47'0 0.1
2017-May-15 17:28N 31°03' E 122°47'0 0.0
2017-May-15 16:58N 31°03' E 122°47'0 0.1
2017-May-15 16:25N 31°03' E 122°47'0 0.0
2017-May-15 15:49N 31°02' E 122°47'0 0.0
2017-May-15 15:25N 31°02' E 122°47'0 0.1
2017-May-15 14:46N 31°02' E 122°47'0 0.1
2017-May-15 13:52N 31°02' E 122°47'0 0.0
2017-May-15 13:28N 31°02' E 122°47'0 0.0
2017-May-15 12:55N 31°02' E 122°47'0 0.1
2017-May-15 12:28N 31°02' E 122°47'0 0.1
2017-May-15 11:52N 31°02' E 122°47'0 0.1
2017-May-15 11:28N 31°02' E 122°47'0 0.0
2017-May-15 10:58N 31°02' E 122°47'0 0.1
2017-May-15 10:28N 31°02' E 122°47'0 0.1
2017-May-15 09:55N 31°02' E 122°47'0 0.1
2017-May-15 09:22N 31°02' E 122°47'0 0.1
2017-May-15 08:55N 31°02' E 122°47'0 0.0
2017-May-15 08:28N 31°02' E 122°47'0 0.0
2017-May-15 07:58N 31°02' E 122°47'0 0.1
2017-May-15 07:07N 31°03' E 122°47'0 0.1
2017-May-15 06:40N 31°03' E 122°47'0 0.0
2017-May-15 06:22N 31°03' E 122°47'0 0.1
2017-May-15 05:49N 31°03' E 122°47'1 0.0
2017-May-14 11:19N 31°02' E 122°47'0 0.0
2017-May-14 10:58N 31°02' E 122°47'0 0.0
2017-May-13 21:31N 31°02' E 122°47'0 0.0
2017-May-13 21:22N 31°02' E 122°47'0 0.0
2017-May-13 20:43N 31°02' E 122°47'0 0.0
2017-May-13 20:28N 31°02' E 122°47'0 0.0
2017-May-13 19:58N 31°02' E 122°47'0 0.0
2017-May-13 19:16N 31°02' E 122°47'0 0.0
2017-May-13 18:58N 31°02' E 122°47'0 0.1
2017-May-13 18:16N 31°02' E 122°47'0 0.2
2017-May-13 17:55N 31°02' E 122°47'0 0.0
2017-May-13 17:28N 31°02' E 122°47'0 0.1
2017-May-13 16:55N 31°02' E 122°47'0 0.1
2017-May-13 16:28N 31°02' E 122°47'0 0.0
2017-May-13 15:58N 31°02' E 122°47'0 0.1
2017-May-13 15:28N 31°02' E 122°47'0 0.0
2017-May-13 14:55N 31°02' E 122°47'0 0.1
2017-May-13 14:22N 31°02' E 122°47'3 3.1
2017-May-13 13:30N 31°01' E 122°50'611.5
2017-May-13 13:00N 30°56' E 122°53'612.5
2017-May-13 12:30N 30°50' E 122°56'612.2
2017-May-13 12:00N 30°44' E 122°58'612.1
2017-May-13 11:30N 30°38' E 122°60'612.1
2017-May-13 11:00N 30°32' E 123°00'612.1
2017-May-13 10:30N 30°26' E 123°01'612.0
2017-May-13 10:00N 30°20' E 123°01'611.4
2017-May-13 09:30N 30°15' E 123°00'611.4
2017-May-13 09:00N 30°09' E 122°60'1411.5
2017-May-13 07:49N 29°56' E 122°56'  

Dump ship's entire track history